sensor_id;sensor_type;location;lat;lon;timestamp;temperature;humidity
15341;DHT22;7770;52.158;5.372;2022-08-21T00:01:20;14.90;99.90
15341;DHT22;7770;52.158;5.372;2022-08-21T00:04:08;14.90;99.90
15341;DHT22;7770;52.158;5.372;2022-08-21T00:06:55;14.90;99.90
15341;DHT22;7770;52.158;5.372;2022-08-21T00:09:41;14.90;99.90
15341;DHT22;7770;52.158;5.372;2022-08-21T00:12:27;14.80;99.90
15341;DHT22;7770;52.158;5.372;2022-08-21T00:15:17;14.90;99.90
15341;DHT22;7770;52.158;5.372;2022-08-21T00:18:06;14.90;99.90
15341;DHT22;7770;52.158;5.372;2022-08-21T00:20:53;14.90;99.90
15341;DHT22;7770;52.158;5.372;2022-08-21T00:23:39;14.90;99.90
15341;DHT22;7770;52.158;5.372;2022-08-21T00:26:25;14.80;99.90
15341;DHT22;7770;52.158;5.372;2022-08-21T00:29:12;14.90;99.90
15341;DHT22;7770;52.158;5.372;2022-08-21T00:31:58;14.90;99.90
15341;DHT22;7770;52.158;5.372;2022-08-21T00:34:44;15.00;99.90
15341;DHT22;7770;52.158;5.372;2022-08-21T00:37:30;15.10;99.90
15341;DHT22;7770;52.158;5.372;2022-08-21T00:40:20;15.00;99.90
15341;DHT22;7770;52.158;5.372;2022-08-21T00:43:11;15.00;99.90
15341;DHT22;7770;52.158;5.372;2022-08-21T00:45:58;15.10;99.90
15341;DHT22;7770;52.158;5.372;2022-08-21T00:48:45;15.00;99.90
15341;DHT22;7770;52.158;5.372;2022-08-21T00:51:43;15.00;99.90
15341;DHT22;7770;52.158;5.372;2022-08-21T00:54:33;15.00;99.90
15341;DHT22;7770;52.158;5.372;2022-08-21T00:57:24;15.00;99.90
15341;DHT22;7770;52.158;5.372;2022-08-21T01:00:17;15.00;99.90
15341;DHT22;7770;52.158;5.372;2022-08-21T01:03:11;15.00;99.90
15341;DHT22;7770;52.158;5.372;2022-08-21T01:05:59;15.10;99.90
15341;DHT22;7770;52.158;5.372;2022-08-21T01:08:46;15.00;99.90
15341;DHT22;7770;52.158;5.372;2022-08-21T01:11:32;15.10;99.90
15341;DHT22;7770;52.158;5.372;2022-08-21T01:14:18;15.10;99.90
15341;DHT22;7770;52.158;5.372;2022-08-21T01:17:06;15.10;99.90
15341;DHT22;7770;52.158;5.372;2022-08-21T01:19:53;15.20;99.90
15341;DHT22;7770;52.158;5.372;2022-08-21T01:22:43;15.20;99.90
15341;DHT22;7770;52.158;5.372;2022-08-21T01:25:30;15.20;99.90
15341;DHT22;7770;52.158;5.372;2022-08-21T01:28:17;15.20;99.90
15341;DHT22;7770;52.158;5.372;2022-08-21T01:31:06;15.20;99.90
15341;DHT22;7770;52.158;5.372;2022-08-21T01:33:53;15.20;99.90
15341;DHT22;7770;52.158;5.372;2022-08-21T01:36:40;15.20;99.90
15341;DHT22;7770;52.158;5.372;2022-08-21T01:39:26;15.20;99.90
15341;DHT22;7770;52.158;5.372;2022-08-21T01:42:13;15.20;99.90
15341;DHT22;7770;52.158;5.372;2022-08-21T01:44:59;15.30;99.90
15341;DHT22;7770;52.158;5.372;2022-08-21T01:47:46;15.40;99.90
15341;DHT22;7770;52.158;5.372;2022-08-21T01:50:33;15.50;99.90
15341;DHT22;7770;52.158;5.372;2022-08-21T01:53:19;15.40;99.90
15341;DHT22;7770;52.158;5.372;2022-08-21T01:56:08;15.50;99.90
15341;DHT22;7770;52.158;5.372;2022-08-21T01:58:56;15.50;99.90
15341;DHT22;7770;52.158;5.372;2022-08-21T02:01:42;15.50;99.90
15341;DHT22;7770;52.158;5.372;2022-08-21T02:04:28;15.60;99.90
15341;DHT22;7770;52.158;5.372;2022-08-21T02:07:16;15.50;99.90
15341;DHT22;7770;52.158;5.372;2022-08-21T02:10:04;15.50;99.90
15341;DHT22;7770;52.158;5.372;2022-08-21T02:12:51;15.50;99.90
15341;DHT22;7770;52.158;5.372;2022-08-21T02:15:38;15.50;99.90
15341;DHT22;7770;52.158;5.372;2022-08-21T02:18:24;15.50;99.90
15341;DHT22;7770;52.158;5.372;2022-08-21T02:21:10;15.50;99.90
15341;DHT22;7770;52.158;5.372;2022-08-21T02:23:56;15.40;99.90
15341;DHT22;7770;52.158;5.372;2022-08-21T02:26:42;15.40;99.90
15341;DHT22;7770;52.158;5.372;2022-08-21T02:29:28;15.40;99.90
15341;DHT22;7770;52.158;5.372;2022-08-21T02:32:14;15.30;99.90
15341;DHT22;7770;52.158;5.372;2022-08-21T02:35:00;15.30;99.90
15341;DHT22;7770;52.158;5.372;2022-08-21T02:37:52;15.30;99.90
15341;DHT22;7770;52.158;5.372;2022-08-21T02:40:43;15.30;99.90
15341;DHT22;7770;52.158;5.372;2022-08-21T02:43:31;15.30;99.90
15341;DHT22;7770;52.158;5.372;2022-08-21T02:46:19;15.30;99.90
15341;DHT22;7770;52.158;5.372;2022-08-21T02:49:06;15.30;99.90
15341;DHT22;7770;52.158;5.372;2022-08-21T02:51:52;15.30;99.90
15341;DHT22;7770;52.158;5.372;2022-08-21T02:54:38;15.30;99.90
15341;DHT22;7770;52.158;5.372;2022-08-21T02:57:24;15.30;99.90
15341;DHT22;7770;52.158;5.372;2022-08-21T03:00:11;15.20;99.90
15341;DHT22;7770;52.158;5.372;2022-08-21T03:02:59;15.20;99.90
15341;DHT22;7770;52.158;5.372;2022-08-21T03:05:45;15.30;99.90
15341;DHT22;7770;52.158;5.372;2022-08-21T03:08:31;15.20;99.90
15341;DHT22;7770;52.158;5.372;2022-08-21T03:11:17;15.20;99.90
15341;DHT22;7770;52.158;5.372;2022-08-21T03:14:04;15.30;99.90
15341;DHT22;7770;52.158;5.372;2022-08-21T03:16:50;15.20;99.90
15341;DHT22;7770;52.158;5.372;2022-08-21T03:19:36;15.20;99.90
15341;DHT22;7770;52.158;5.372;2022-08-21T03:22:22;15.20;99.90
15341;DHT22;7770;52.158;5.372;2022-08-21T03:25:09;15.10;99.90
15341;DHT22;7770;52.158;5.372;2022-08-21T03:27:56;15.20;99.90
15341;DHT22;7770;52.158;5.372;2022-08-21T03:30:44;15.20;99.90
15341;DHT22;7770;52.158;5.372;2022-08-21T03:33:30;15.20;99.90
15341;DHT22;7770;52.158;5.372;2022-08-21T03:36:17;15.10;99.90
15341;DHT22;7770;52.158;5.372;2022-08-21T03:39:03;15.10;99.90
15341;DHT22;7770;52.158;5.372;2022-08-21T03:41:49;15.10;99.90
15341;DHT22;7770;52.158;5.372;2022-08-21T03:44:35;15.00;99.90
15341;DHT22;7770;52.158;5.372;2022-08-21T03:47:21;15.00;99.90
15341;DHT22;7770;52.158;5.372;2022-08-21T03:50:08;15.00;99.90
15341;DHT22;7770;52.158;5.372;2022-08-21T03:52:54;14.90;99.90
15341;DHT22;7770;52.158;5.372;2022-08-21T03:55:41;14.90;99.90
15341;DHT22;7770;52.158;5.372;2022-08-21T03:58:28;14.80;99.90
15341;DHT22;7770;52.158;5.372;2022-08-21T04:01:15;14.80;99.90
15341;DHT22;7770;52.158;5.372;2022-08-21T04:04:01;14.80;99.90
15341;DHT22;7770;52.158;5.372;2022-08-21T04:06:48;14.80;99.90
15341;DHT22;7770;52.158;5.372;2022-08-21T04:09:35;14.80;99.90
15341;DHT22;7770;52.158;5.372;2022-08-21T04:12:21;14.80;99.90
15341;DHT22;7770;52.158;5.372;2022-08-21T04:15:07;14.70;99.90
15341;DHT22;7770;52.158;5.372;2022-08-21T04:17:54;14.80;99.90
15341;DHT22;7770;52.158;5.372;2022-08-21T04:20:42;14.80;99.90
15341;DHT22;7770;52.158;5.372;2022-08-21T04:23:30;14.80;99.90
15341;DHT22;7770;52.158;5.372;2022-08-21T04:26:16;14.80;99.90
15341;DHT22;7770;52.158;5.372;2022-08-21T04:29:03;14.70;99.90
15341;DHT22;7770;52.158;5.372;2022-08-21T04:31:52;14.70;99.90
15341;DHT22;7770;52.158;5.372;2022-08-21T04:34:38;14.50;99.90
15341;DHT22;7770;52.158;5.372;2022-08-21T04:37:25;14.40;99.90
15341;DHT22;7770;52.158;5.372;2022-08-21T04:40:13;14.40;99.90
15341;DHT22;7770;52.158;5.372;2022-08-21T04:43:06;14.30;99.90
15341;DHT22;7770;52.158;5.372;2022-08-21T04:45:57;14.30;99.90
15341;DHT22;7770;52.158;5.372;2022-08-21T04:48:43;14.20;99.90
15341;DHT22;7770;52.158;5.372;2022-08-21T04:51:32;14.20;99.90
15341;DHT22;7770;52.158;5.372;2022-08-21T04:54:21;14.20;99.90
15341;DHT22;7770;52.158;5.372;2022-08-21T04:57:08;14.20;99.90
15341;DHT22;7770;52.158;5.372;2022-08-21T04:59:55;14.10;99.90
15341;DHT22;7770;52.158;5.372;2022-08-21T05:02:41;14.20;99.90
15341;DHT22;7770;52.158;5.372;2022-08-21T05:05:28;14.20;99.90
15341;DHT22;7770;52.158;5.372;2022-08-21T05:08:17;14.20;99.90
15341;DHT22;7770;52.158;5.372;2022-08-21T05:11:05;14.20;99.90
15341;DHT22;7770;52.158;5.372;2022-08-21T05:13:52;14.30;99.90
15341;DHT22;7770;52.158;5.372;2022-08-21T05:16:38;14.40;99.90
15341;DHT22;7770;52.158;5.372;2022-08-21T05:19:25;14.60;99.90
15341;DHT22;7770;52.158;5.372;2022-08-21T05:22:11;14.80;99.90
15341;DHT22;7770;52.158;5.372;2022-08-21T05:25:06;15.40;99.90
15341;DHT22;7770;52.158;5.372;2022-08-21T05:27:53;16.40;99.90
15341;DHT22;7770;52.158;5.372;2022-08-21T05:30:39;17.00;99.90
15341;DHT22;7770;52.158;5.372;2022-08-21T05:33:26;17.00;99.90
15341;DHT22;7770;52.158;5.372;2022-08-21T05:36:12;16.80;99.90
15341;DHT22;7770;52.158;5.372;2022-08-21T05:38:58;16.60;99.90
15341;DHT22;7770;52.158;5.372;2022-08-21T05:41:44;16.50;99.90
15341;DHT22;7770;52.158;5.372;2022-08-21T05:44:30;16.50;99.90
15341;DHT22;7770;52.158;5.372;2022-08-21T05:47:16;16.50;99.90
15341;DHT22;7770;52.158;5.372;2022-08-21T05:50:04;16.50;99.90
15341;DHT22;7770;52.158;5.372;2022-08-21T05:52:50;16.60;99.90
15341;DHT22;7770;52.158;5.372;2022-08-21T05:55:37;16.80;99.90
15341;DHT22;7770;52.158;5.372;2022-08-21T05:58:24;16.80;99.90
15341;DHT22;7770;52.158;5.372;2022-08-21T06:01:10;16.80;99.90
15341;DHT22;7770;52.158;5.372;2022-08-21T06:03:56;16.80;99.90
15341;DHT22;7770;52.158;5.372;2022-08-21T06:06:42;16.70;99.90
15341;DHT22;7770;52.158;5.372;2022-08-21T06:09:28;16.80;99.90
15341;DHT22;7770;52.158;5.372;2022-08-21T06:12:14;16.70;99.90
15341;DHT22;7770;52.158;5.372;2022-08-21T06:15:00;16.70;99.90
15341;DHT22;7770;52.158;5.372;2022-08-21T06:17:46;16.70;99.90
15341;DHT22;7770;52.158;5.372;2022-08-21T06:20:32;16.80;99.90
15341;DHT22;7770;52.158;5.372;2022-08-21T06:23:19;16.80;99.90
15341;DHT22;7770;52.158;5.372;2022-08-21T06:26:06;16.80;99.90
15341;DHT22;7770;52.158;5.372;2022-08-21T06:28:52;16.90;99.90
15341;DHT22;7770;52.158;5.372;2022-08-21T06:31:39;16.90;99.90
15341;DHT22;7770;52.158;5.372;2022-08-21T06:34:26;16.90;99.90
15341;DHT22;7770;52.158;5.372;2022-08-21T06:37:12;17.00;99.90
15341;DHT22;7770;52.158;5.372;2022-08-21T06:39:58;17.00;99.90
15341;DHT22;7770;52.158;5.372;2022-08-21T06:42:44;17.30;99.90
15341;DHT22;7770;52.158;5.372;2022-08-21T06:45:30;17.60;99.90
15341;DHT22;7770;52.158;5.372;2022-08-21T06:48:16;17.60;99.90
15341;DHT22;7770;52.158;5.372;2022-08-21T06:51:03;17.80;99.90
15341;DHT22;7770;52.158;5.372;2022-08-21T06:53:49;17.60;99.90
15341;DHT22;7770;52.158;5.372;2022-08-21T06:56:35;17.50;99.90
15341;DHT22;7770;52.158;5.372;2022-08-21T06:59:23;17.40;99.90
15341;DHT22;7770;52.158;5.372;2022-08-21T07:02:09;17.50;99.90
15341;DHT22;7770;52.158;5.372;2022-08-21T07:04:55;17.60;99.90
15341;DHT22;7770;52.158;5.372;2022-08-21T07:07:41;17.70;99.90
15341;DHT22;7770;52.158;5.372;2022-08-21T07:10:27;17.80;99.90
15341;DHT22;7770;52.158;5.372;2022-08-21T07:13:14;17.90;99.90
15341;DHT22;7770;52.158;5.372;2022-08-21T07:16:00;18.10;99.90
15341;DHT22;7770;52.158;5.372;2022-08-21T07:18:46;18.20;99.90
15341;DHT22;7770;52.158;5.372;2022-08-21T07:21:32;18.30;99.90
15341;DHT22;7770;52.158;5.372;2022-08-21T07:24:19;18.60;99.90
15341;DHT22;7770;52.158;5.372;2022-08-21T07:27:05;18.80;99.90
15341;DHT22;7770;52.158;5.372;2022-08-21T07:29:51;19.20;99.90
15341;DHT22;7770;52.158;5.372;2022-08-21T07:32:37;19.40;99.90
15341;DHT22;7770;52.158;5.372;2022-08-21T07:35:23;19.40;99.90
15341;DHT22;7770;52.158;5.372;2022-08-21T07:38:09;19.40;99.90
15341;DHT22;7770;52.158;5.372;2022-08-21T07:40:56;20.30;99.90
15341;DHT22;7770;52.158;5.372;2022-08-21T07:43:45;22.00;99.90
15341;DHT22;7770;52.158;5.372;2022-08-21T07:46:31;23.40;99.90
15341;DHT22;7770;52.158;5.372;2022-08-21T07:49:17;24.30;99.90
15341;DHT22;7770;52.158;5.372;2022-08-21T07:52:03;25.20;99.90
15341;DHT22;7770;52.158;5.372;2022-08-21T07:54:49;25.00;99.90
15341;DHT22;7770;52.158;5.372;2022-08-21T07:57:36;24.10;99.90
15341;DHT22;7770;52.158;5.372;2022-08-21T08:00:24;23.30;99.90
15341;DHT22;7770;52.158;5.372;2022-08-21T08:03:10;22.90;99.90
15341;DHT22;7770;52.158;5.372;2022-08-21T08:05:57;22.40;99.90
15341;DHT22;7770;52.158;5.372;2022-08-21T08:08:43;22.90;99.90
15341;DHT22;7770;52.158;5.372;2022-08-21T08:11:30;24.40;99.90
15341;DHT22;7770;52.158;5.372;2022-08-21T08:14:16;26.10;99.90
15341;DHT22;7770;52.158;5.372;2022-08-21T08:17:02;27.80;99.90
15341;DHT22;7770;52.158;5.372;2022-08-21T08:19:49;28.40;99.90
15341;DHT22;7770;52.158;5.372;2022-08-21T08:22:37;29.20;99.90
15341;DHT22;7770;52.158;5.372;2022-08-21T08:25:26;29.30;99.90
15341;DHT22;7770;52.158;5.372;2022-08-21T08:28:13;29.00;99.90
15341;DHT22;7770;52.158;5.372;2022-08-21T08:31:00;29.80;99.90
15341;DHT22;7770;52.158;5.372;2022-08-21T08:33:46;30.80;99.90
15341;DHT22;7770;52.158;5.372;2022-08-21T08:36:36;30.90;99.90
15341;DHT22;7770;52.158;5.372;2022-08-21T08:39:22;31.10;99.90
15341;DHT22;7770;52.158;5.372;2022-08-21T08:42:12;31.50;99.90
15341;DHT22;7770;52.158;5.372;2022-08-21T08:45:06;32.40;99.30
15341;DHT22;7770;52.158;5.372;2022-08-21T08:48:02;32.80;98.70
15341;DHT22;7770;52.158;5.372;2022-08-21T08:50:55;33.00;98.30
15341;DHT22;7770;52.158;5.372;2022-08-21T08:54:03;31.90;98.40
15341;DHT22;7770;52.158;5.372;2022-08-21T08:56:53;31.60;98.80
15341;DHT22;7770;52.158;5.372;2022-08-21T08:59:48;32.60;98.30
15341;DHT22;7770;52.158;5.372;2022-08-21T09:02:39;32.90;97.80
15341;DHT22;7770;52.158;5.372;2022-08-21T09:05:46;33.30;97.60
15341;DHT22;7770;52.158;5.372;2022-08-21T09:11:32;35.30;96.10
15341;DHT22;7770;52.158;5.372;2022-08-21T09:14:47;35.70;95.80
15341;DHT22;7770;52.158;5.372;2022-08-21T09:18:19;35.60;95.50
15341;DHT22;7770;52.158;5.372;2022-08-21T09:24:48;34.90;95.30
15341;DHT22;7770;52.158;5.372;2022-08-21T09:27:46;35.00;95.40
15341;DHT22;7770;52.158;5.372;2022-08-21T09:30:32;34.50;95.00
15341;DHT22;7770;52.158;5.372;2022-08-21T09:33:18;34.00;94.90
15341;DHT22;7770;52.158;5.372;2022-08-21T09:36:04;33.30;95.60
15341;DHT22;7770;52.158;5.372;2022-08-21T09:38:53;33.10;95.80
15341;DHT22;7770;52.158;5.372;2022-08-21T09:41:40;33.10;96.50
15341;DHT22;7770;52.158;5.372;2022-08-21T09:44:29;33.40;96.00
15341;DHT22;7770;52.158;5.372;2022-08-21T09:47:18;31.90;96.50
15341;DHT22;7770;52.158;5.372;2022-08-21T09:50:14;32.50;96.40
15341;DHT22;7770;52.158;5.372;2022-08-21T09:53:03;32.80;95.50
15341;DHT22;7770;52.158;5.372;2022-08-21T09:58:55;30.90;96.80
15341;DHT22;7770;52.158;5.372;2022-08-21T10:01:45;32.00;97.10
15341;DHT22;7770;52.158;5.372;2022-08-21T10:04:36;32.50;96.10
15341;DHT22;7770;52.158;5.372;2022-08-21T10:07:24;33.00;96.10
15341;DHT22;7770;52.158;5.372;2022-08-21T10:10:22;32.70;96.20
15341;DHT22;7770;52.158;5.372;2022-08-21T10:19:53;34.80;94.30
15341;DHT22;7770;52.158;5.372;2022-08-21T10:23:19;32.80;95.30
15341;DHT22;7770;52.158;5.372;2022-08-21T10:33:11;34.90;94.30
15341;DHT22;7770;52.158;5.372;2022-08-21T10:39:31;33.00;95.30
15341;DHT22;7770;52.158;5.372;2022-08-21T10:42:38;32.50;95.20
15341;DHT22;7770;52.158;5.372;2022-08-21T10:48:56;31.60;95.90
15341;DHT22;7770;52.158;5.372;2022-08-21T10:55:22;29.90;97.40
15341;DHT22;7770;52.158;5.372;2022-08-21T10:58:21;30.10;97.40
15341;DHT22;7770;52.158;5.372;2022-08-21T11:01:15;30.10;97.80
15341;DHT22;7770;52.158;5.372;2022-08-21T11:04:16;31.00;96.30
15341;DHT22;7770;52.158;5.372;2022-08-21T11:07:35;32.30;95.90
15341;DHT22;7770;52.158;5.372;2022-08-21T11:10:27;33.70;94.20
15341;DHT22;7770;52.158;5.372;2022-08-21T11:13:39;33.30;93.70
15341;DHT22;7770;52.158;5.372;2022-08-21T11:16:49;32.60;94.00
15341;DHT22;7770;52.158;5.372;2022-08-21T11:22:56;30.40;95.80
15341;DHT22;7770;52.158;5.372;2022-08-21T11:26:15;30.30;96.10
15341;DHT22;7770;52.158;5.372;2022-08-21T11:29:13;30.20;96.10
15341;DHT22;7770;52.158;5.372;2022-08-21T11:36:00;28.50;97.20
15341;DHT22;7770;52.158;5.372;2022-08-21T11:39:00;27.90;98.50
15341;DHT22;7770;52.158;5.372;2022-08-21T11:42:46;29.00;97.60
15341;DHT22;7770;52.158;5.372;2022-08-21T11:45:51;28.50;97.40
15341;DHT22;7770;52.158;5.372;2022-08-21T11:55:03;27.60;99.80
15341;DHT22;7770;52.158;5.372;2022-08-21T11:57:59;27.10;99.80
15341;DHT22;7770;52.158;5.372;2022-08-21T12:00:57;28.90;99.40
15341;DHT22;7770;52.158;5.372;2022-08-21T12:04:02;29.20;98.00
15341;DHT22;7770;52.158;5.372;2022-08-21T12:07:14;28.00;98.90
15341;DHT22;7770;52.158;5.372;2022-08-21T12:10:13;27.60;99.30
15341;DHT22;7770;52.158;5.372;2022-08-21T12:13:08;26.90;99.90
15341;DHT22;7770;52.158;5.372;2022-08-21T12:16:29;27.60;99.70
15341;DHT22;7770;52.158;5.372;2022-08-21T12:25:06;32.00;96.40
15341;DHT22;7770;52.158;5.372;2022-08-21T12:28:02;32.50;95.10
15341;DHT22;7770;52.158;5.372;2022-08-21T12:30:54;30.70;95.70
15341;DHT22;7770;52.158;5.372;2022-08-21T12:33:40;30.70;95.80
15341;DHT22;7770;52.158;5.372;2022-08-21T12:36:41;30.40;96.10
15341;DHT22;7770;52.158;5.372;2022-08-21T12:39:32;29.90;96.60
15341;DHT22;7770;52.158;5.372;2022-08-21T12:42:22;29.20;96.80
15341;DHT22;7770;52.158;5.372;2022-08-21T12:45:32;29.10;96.40
15341;DHT22;7770;52.158;5.372;2022-08-21T12:48:25;29.20;96.60
15341;DHT22;7770;52.158;5.372;2022-08-21T12:51:18;28.20;97.50
15341;DHT22;7770;52.158;5.372;2022-08-21T12:54:08;28.10;97.70
15341;DHT22;7770;52.158;5.372;2022-08-21T12:57:00;28.80;97.40
15341;DHT22;7770;52.158;5.372;2022-08-21T12:59:53;28.80;97.50
15341;DHT22;7770;52.158;5.372;2022-08-21T13:02:47;28.90;97.90
15341;DHT22;7770;52.158;5.372;2022-08-21T13:05:35;28.70;98.20
15341;DHT22;7770;52.158;5.372;2022-08-21T13:08:25;28.20;98.60
15341;DHT22;7770;52.158;5.372;2022-08-21T13:11:16;28.10;98.20
15341;DHT22;7770;52.158;5.372;2022-08-21T13:14:04;28.50;98.10
15341;DHT22;7770;52.158;5.372;2022-08-21T13:16:55;28.80;97.90
15341;DHT22;7770;52.158;5.372;2022-08-21T13:19:42;28.90;98.50
15341;DHT22;7770;52.158;5.372;2022-08-21T13:22:28;28.20;98.00
15341;DHT22;7770;52.158;5.372;2022-08-21T13:25:17;27.70;98.40
15341;DHT22;7770;52.158;5.372;2022-08-21T13:28:08;26.90;98.70
15341;DHT22;7770;52.158;5.372;2022-08-21T13:30:57;26.70;99.10
15341;DHT22;7770;52.158;5.372;2022-08-21T13:33:43;26.50;99.40
15341;DHT22;7770;52.158;5.372;2022-08-21T13:36:35;26.40;99.60
15341;DHT22;7770;52.158;5.372;2022-08-21T13:39:23;26.50;99.90
15341;DHT22;7770;52.158;5.372;2022-08-21T13:42:11;27.20;99.60
15341;DHT22;7770;52.158;5.372;2022-08-21T13:44:57;27.60;99.20
15341;DHT22;7770;52.158;5.372;2022-08-21T13:47:45;27.20;99.30
15341;DHT22;7770;52.158;5.372;2022-08-21T13:50:35;27.10;99.10
15341;DHT22;7770;52.158;5.372;2022-08-21T13:56:28;27.20;98.90
15341;DHT22;7770;52.158;5.372;2022-08-21T13:59:25;27.00;98.80
15341;DHT22;7770;52.158;5.372;2022-08-21T14:02:18;27.00;99.40
15341;DHT22;7770;52.158;5.372;2022-08-21T14:05:06;27.10;99.50
15341;DHT22;7770;52.158;5.372;2022-08-21T14:10:49;27.00;99.70
15341;DHT22;7770;52.158;5.372;2022-08-21T14:13:41;26.80;99.40
15341;DHT22;7770;52.158;5.372;2022-08-21T14:16:44;26.60;99.80
15341;DHT22;7770;52.158;5.372;2022-08-21T14:19:43;26.40;99.90
15341;DHT22;7770;52.158;5.372;2022-08-21T14:31:14;26.00;99.90
15341;DHT22;7770;52.158;5.372;2022-08-21T14:34:02;26.00;99.70
15341;DHT22;7770;52.158;5.372;2022-08-21T14:36:49;26.10;99.90
15341;DHT22;7770;52.158;5.372;2022-08-21T14:39:36;25.80;99.90
15341;DHT22;7770;52.158;5.372;2022-08-21T14:42:22;25.80;99.90
15341;DHT22;7770;52.158;5.372;2022-08-21T14:45:20;25.80;99.90
15341;DHT22;7770;52.158;5.372;2022-08-21T14:48:12;25.60;99.90
15341;DHT22;7770;52.158;5.372;2022-08-21T14:50:58;25.30;99.90
15341;DHT22;7770;52.158;5.372;2022-08-21T14:53:45;25.50;99.90
15341;DHT22;7770;52.158;5.372;2022-08-21T14:56:32;25.60;99.90
15341;DHT22;7770;52.158;5.372;2022-08-21T14:59:19;25.50;99.90
15341;DHT22;7770;52.158;5.372;2022-08-21T15:02:06;25.50;99.90
15341;DHT22;7770;52.158;5.372;2022-08-21T15:04:53;25.70;99.90
15341;DHT22;7770;52.158;5.372;2022-08-21T15:07:39;25.70;99.90
15341;DHT22;7770;52.158;5.372;2022-08-21T15:10:25;25.70;99.90
15341;DHT22;7770;52.158;5.372;2022-08-21T15:13:11;25.60;99.90
15341;DHT22;7770;52.158;5.372;2022-08-21T15:15:57;25.60;99.90
15341;DHT22;7770;52.158;5.372;2022-08-21T15:18:43;25.70;99.90
15341;DHT22;7770;52.158;5.372;2022-08-21T15:21:29;25.50;99.90
15341;DHT22;7770;52.158;5.372;2022-08-21T15:24:16;25.50;99.90
15341;DHT22;7770;52.158;5.372;2022-08-21T15:27:03;25.30;99.90
15341;DHT22;7770;52.158;5.372;2022-08-21T15:29:52;25.20;99.90
15341;DHT22;7770;52.158;5.372;2022-08-21T15:32:39;25.00;99.90
15341;DHT22;7770;52.158;5.372;2022-08-21T15:35:27;24.90;99.90
15341;DHT22;7770;52.158;5.372;2022-08-21T15:38:13;24.90;99.90
15341;DHT22;7770;52.158;5.372;2022-08-21T15:41:02;24.80;99.90
15341;DHT22;7770;52.158;5.372;2022-08-21T15:43:51;24.80;99.90
15341;DHT22;7770;52.158;5.372;2022-08-21T15:46:39;24.90;99.90
15341;DHT22;7770;52.158;5.372;2022-08-21T15:49:26;24.80;99.90
15341;DHT22;7770;52.158;5.372;2022-08-21T15:52:17;24.60;99.90
15341;DHT22;7770;52.158;5.372;2022-08-21T15:55:05;24.60;99.90
15341;DHT22;7770;52.158;5.372;2022-08-21T15:57:52;24.70;99.90
15341;DHT22;7770;52.158;5.372;2022-08-21T16:00:43;24.70;99.90
15341;DHT22;7770;52.158;5.372;2022-08-21T16:03:30;24.60;99.90
15341;DHT22;7770;52.158;5.372;2022-08-21T16:06:16;24.60;99.90
15341;DHT22;7770;52.158;5.372;2022-08-21T16:09:02;24.60;99.90
15341;DHT22;7770;52.158;5.372;2022-08-21T16:11:49;24.50;99.90
15341;DHT22;7770;52.158;5.372;2022-08-21T16:14:36;24.50;99.90
15341;DHT22;7770;52.158;5.372;2022-08-21T16:17:29;24.40;99.90
15341;DHT22;7770;52.158;5.372;2022-08-21T16:20:27;24.40;99.90
15341;DHT22;7770;52.158;5.372;2022-08-21T16:23:14;24.30;99.90
15341;DHT22;7770;52.158;5.372;2022-08-21T16:26:02;24.30;99.90
15341;DHT22;7770;52.158;5.372;2022-08-21T16:28:51;24.30;99.90
15341;DHT22;7770;52.158;5.372;2022-08-21T16:31:40;24.20;99.90
15341;DHT22;7770;52.158;5.372;2022-08-21T16:34:26;24.20;99.90
15341;DHT22;7770;52.158;5.372;2022-08-21T16:37:14;23.90;99.90
15341;DHT22;7770;52.158;5.372;2022-08-21T16:40:01;23.80;99.90
15341;DHT22;7770;52.158;5.372;2022-08-21T16:42:48;23.80;99.90
15341;DHT22;7770;52.158;5.372;2022-08-21T16:45:34;23.80;99.90
15341;DHT22;7770;52.158;5.372;2022-08-21T16:48:21;23.70;99.90
15341;DHT22;7770;52.158;5.372;2022-08-21T16:51:07;23.60;99.90
15341;DHT22;7770;52.158;5.372;2022-08-21T16:53:53;23.50;99.90
15341;DHT22;7770;52.158;5.372;2022-08-21T16:56:39;23.50;99.90
15341;DHT22;7770;52.158;5.372;2022-08-21T16:59:26;23.40;99.90
15341;DHT22;7770;52.158;5.372;2022-08-21T17:02:29;23.40;99.90
15341;DHT22;7770;52.158;5.372;2022-08-21T17:05:24;23.40;99.90
15341;DHT22;7770;52.158;5.372;2022-08-21T17:08:09;23.40;99.90
15341;DHT22;7770;52.158;5.372;2022-08-21T17:10:56;23.20;99.90
15341;DHT22;7770;52.158;5.372;2022-08-21T17:13:43;23.10;99.90
15341;DHT22;7770;52.158;5.372;2022-08-21T17:16:29;23.10;99.90
15341;DHT22;7770;52.158;5.372;2022-08-21T17:19:15;23.00;99.90
15341;DHT22;7770;52.158;5.372;2022-08-21T17:22:03;23.00;99.90
15341;DHT22;7770;52.158;5.372;2022-08-21T17:24:50;22.90;99.90
15341;DHT22;7770;52.158;5.372;2022-08-21T17:27:36;22.80;99.90
15341;DHT22;7770;52.158;5.372;2022-08-21T17:30:22;22.80;99.90
15341;DHT22;7770;52.158;5.372;2022-08-21T17:33:08;22.70;99.90
15341;DHT22;7770;52.158;5.372;2022-08-21T17:35:54;22.60;99.90
15341;DHT22;7770;52.158;5.372;2022-08-21T17:38:40;22.60;99.90
15341;DHT22;7770;52.158;5.372;2022-08-21T17:41:26;22.50;99.90
15341;DHT22;7770;52.158;5.372;2022-08-21T17:44:14;22.40;99.90
15341;DHT22;7770;52.158;5.372;2022-08-21T17:47:01;22.30;99.90
15341;DHT22;7770;52.158;5.372;2022-08-21T17:49:47;22.20;99.90
15341;DHT22;7770;52.158;5.372;2022-08-21T17:52:34;22.20;99.90
15341;DHT22;7770;52.158;5.372;2022-08-21T17:55:20;22.10;99.90
15341;DHT22;7770;52.158;5.372;2022-08-21T17:58:09;22.00;99.90
15341;DHT22;7770;52.158;5.372;2022-08-21T18:01:00;21.90;99.90
15341;DHT22;7770;52.158;5.372;2022-08-21T18:03:48;21.90;99.90
15341;DHT22;7770;52.158;5.372;2022-08-21T18:06:34;21.80;99.90
15341;DHT22;7770;52.158;5.372;2022-08-21T18:09:21;21.70;99.90
15341;DHT22;7770;52.158;5.372;2022-08-21T18:12:12;21.70;99.90
15341;DHT22;7770;52.158;5.372;2022-08-21T18:15:00;21.70;99.90
15341;DHT22;7770;52.158;5.372;2022-08-21T18:17:49;21.60;99.90
15341;DHT22;7770;52.158;5.372;2022-08-21T18:20:35;21.50;99.90
15341;DHT22;7770;52.158;5.372;2022-08-21T18:23:21;21.50;99.90
15341;DHT22;7770;52.158;5.372;2022-08-21T18:26:07;21.40;99.90
15341;DHT22;7770;52.158;5.372;2022-08-21T18:28:55;21.30;99.90
15341;DHT22;7770;52.158;5.372;2022-08-21T18:31:45;21.30;99.90
15341;DHT22;7770;52.158;5.372;2022-08-21T18:34:35;21.20;99.90
15341;DHT22;7770;52.158;5.372;2022-08-21T18:37:23;21.10;99.90
15341;DHT22;7770;52.158;5.372;2022-08-21T18:40:10;21.00;99.90
15341;DHT22;7770;52.158;5.372;2022-08-21T18:42:56;20.90;99.90
15341;DHT22;7770;52.158;5.372;2022-08-21T18:45:42;20.80;99.90
15341;DHT22;7770;52.158;5.372;2022-08-21T18:48:28;20.70;99.90
15341;DHT22;7770;52.158;5.372;2022-08-21T18:51:14;20.60;99.90
15341;DHT22;7770;52.158;5.372;2022-08-21T18:54:01;20.50;99.90
15341;DHT22;7770;52.158;5.372;2022-08-21T18:56:47;20.40;99.90
15341;DHT22;7770;52.158;5.372;2022-08-21T18:59:33;20.30;99.90
15341;DHT22;7770;52.158;5.372;2022-08-21T19:02:20;20.20;99.90
15341;DHT22;7770;52.158;5.372;2022-08-21T19:05:07;20.10;99.90
15341;DHT22;7770;52.158;5.372;2022-08-21T19:07:55;20.00;99.90
15341;DHT22;7770;52.158;5.372;2022-08-21T19:10:43;20.00;99.90
15341;DHT22;7770;52.158;5.372;2022-08-21T19:13:32;19.90;99.90